createdAt,value
2018-09-04T00:01:11.278Z,99.90
2018-09-04T00:03:39.941Z,99.90
2018-09-04T00:06:08.704Z,99.90
2018-09-04T00:08:37.499Z,99.90
2018-09-04T00:11:06.128Z,99.90
2018-09-04T00:13:34.679Z,99.90
2018-09-04T00:16:10.026Z,99.90
2018-09-04T00:18:40.036Z,99.90
2018-09-04T00:21:08.871Z,99.90
2018-09-04T00:23:37.640Z,99.90
2018-09-04T00:26:06.693Z,99.90
2018-09-04T00:28:35.274Z,99.90
2018-09-04T00:31:03.879Z,99.90
2018-09-04T00:33:32.628Z,99.90
2018-09-04T00:36:01.273Z,99.90
2018-09-04T00:38:30.420Z,99.90
2018-09-04T00:40:59.039Z,99.90
2018-09-04T00:43:27.629Z,99.90
2018-09-04T00:45:56.897Z,99.90
2018-09-04T00:48:25.387Z,99.90
2018-09-04T00:50:54.320Z,99.90
2018-09-04T00:53:22.993Z,99.90
2018-09-04T00:55:51.501Z,99.90
2018-09-04T00:58:20.039Z,99.90
2018-09-04T01:00:48.639Z,99.90
2018-09-04T01:03:17.324Z,99.90
2018-09-04T01:05:46.015Z,99.90
2018-09-04T01:08:14.695Z,99.90
2018-09-04T01:10:43.207Z,99.90
2018-09-04T01:13:11.763Z,99.90
2018-09-04T01:15:40.287Z,99.90
2018-09-04T01:18:09.317Z,99.90
2018-09-04T01:20:37.797Z,99.90
2018-09-04T01:23:06.930Z,99.90
2018-09-04T01:25:35.423Z,99.90
2018-09-04T01:28:03.986Z,99.90
2018-09-04T01:30:32.515Z,99.90
2018-09-04T01:33:01.006Z,99.90
2018-09-04T01:35:29.632Z,99.90
2018-09-04T01:37:58.396Z,99.90
2018-09-04T01:40:27.038Z,99.90
2018-09-04T01:42:55.539Z,99.90
2018-09-04T01:45:24.144Z,99.90
2018-09-04T01:47:52.676Z,99.90
2018-09-04T01:50:21.233Z,99.90
2018-09-04T01:52:49.722Z,99.90
2018-09-04T01:55:18.280Z,99.90
2018-09-04T01:57:47.025Z,99.90
2018-09-04T02:00:15.745Z,99.90
2018-09-04T02:02:44.606Z,99.90
2018-09-04T02:05:13.155Z,99.90
2018-09-04T02:07:41.654Z,99.90
2018-09-04T02:10:10.162Z,99.90
2018-09-04T02:12:38.839Z,99.90
2018-09-04T02:15:07.633Z,99.90
2018-09-04T02:17:36.354Z,99.90
2018-09-04T02:20:05.552Z,99.90
2018-09-04T02:22:34.076Z,99.90
2018-09-04T02:25:02.828Z,99.90
2018-09-04T02:27:31.766Z,99.90
2018-09-04T02:30:00.526Z,99.90
2018-09-04T02:32:29.256Z,99.90
2018-09-04T02:34:57.841Z,99.90
2018-09-04T02:37:26.403Z,99.90
2018-09-04T02:39:54.916Z,99.90
2018-09-04T02:42:23.774Z,99.90
2018-09-04T02:44:52.610Z,99.90
2018-09-04T02:47:21.202Z,99.90
2018-09-04T02:49:49.771Z,99.90
2018-09-04T02:52:18.313Z,99.90
2018-09-04T02:54:46.811Z,99.90
2018-09-04T02:57:15.316Z,99.90
2018-09-04T02:59:43.836Z,99.90
2018-09-04T03:02:12.487Z,99.90
2018-09-04T03:04:41.071Z,99.90
2018-09-04T03:07:09.603Z,99.90
2018-09-04T03:09:38.490Z,99.90
2018-09-04T03:12:07.286Z,99.90
2018-09-04T03:14:36.066Z,99.90
2018-09-04T03:17:04.592Z,99.90
2018-09-04T03:19:33.322Z,99.90
2018-09-04T03:22:01.840Z,99.90
2018-09-04T03:24:30.566Z,99.90
2018-09-04T03:26:59.083Z,99.90
2018-09-04T03:29:27.679Z,99.90
2018-09-04T03:31:56.394Z,99.90
2018-09-04T03:34:25.252Z,99.90
2018-09-04T03:36:54.089Z,99.90
2018-09-04T03:39:22.907Z,99.90
2018-09-04T03:41:51.416Z,99.90
2018-09-04T03:44:20.241Z,99.90
2018-09-04T03:46:49.328Z,99.90
2018-09-04T03:49:17.925Z,99.90
2018-09-04T03:51:46.536Z,99.90
2018-09-04T03:54:15.022Z,99.90
2018-09-04T03:56:43.557Z,99.90
2018-09-04T03:59:12.111Z,99.90
2018-09-04T04:01:40.775Z,99.90
2018-09-04T04:04:09.528Z,99.90
2018-09-04T04:06:38.212Z,99.90
2018-09-04T04:09:08.912Z,99.90
2018-09-04T04:11:37.436Z,99.90
2018-09-04T04:14:06.340Z,99.90
2018-09-04T04:16:35.003Z,99.90
2018-09-04T04:19:03.864Z,99.90
2018-09-04T04:21:32.748Z,99.90
2018-09-04T04:24:01.641Z,99.90
2018-09-04T04:26:30.221Z,99.90
2018-09-04T04:28:58.933Z,99.90
2018-09-04T04:31:27.457Z,99.90
2018-09-04T04:33:56.081Z,99.90
2018-09-04T04:36:24.611Z,99.90
2018-09-04T04:38:53.191Z,99.90
2018-09-04T04:41:21.791Z,99.90
2018-09-04T04:43:50.383Z,99.90
2018-09-04T04:46:19.146Z,99.90
2018-09-04T04:48:47.956Z,99.90
2018-09-04T04:51:16.515Z,99.90
2018-09-04T04:53:45.036Z,99.90
2018-09-04T04:56:13.961Z,99.90
2018-09-04T04:58:42.500Z,99.90
2018-09-04T05:01:11.378Z,99.90
2018-09-04T05:03:39.936Z,99.90
2018-09-04T05:06:08.545Z,99.90
2018-09-04T05:08:37.089Z,99.90
2018-09-04T05:11:05.824Z,99.90
2018-09-04T05:13:34.249Z,99.90
2018-09-04T05:16:02.822Z,99.90
2018-09-04T05:18:31.404Z,99.90
2018-09-04T05:20:59.937Z,99.90
2018-09-04T05:23:28.507Z,99.90
2018-09-04T05:25:57.887Z,99.90
2018-09-04T05:28:26.623Z,99.90
2018-09-04T05:30:55.251Z,99.90
2018-09-04T05:33:33.162Z,99.90
2018-09-04T05:36:02.097Z,99.90
2018-09-04T05:38:30.819Z,99.90
2018-09-04T05:40:59.625Z,99.90
2018-09-04T05:43:31.104Z,99.90
2018-09-04T05:46:02.631Z,99.90
2018-09-04T05:48:31.548Z,99.90
2018-09-04T05:51:00.161Z,99.90
2018-09-04T05:53:28.886Z,99.90
2018-09-04T05:55:58.265Z,99.90
2018-09-04T05:58:26.771Z,99.90
2018-09-04T06:01:02.376Z,99.90
2018-09-04T06:03:30.932Z,99.90
2018-09-04T06:05:59.443Z,99.90
2018-09-04T06:08:28.040Z,99.90
2018-09-04T06:10:56.758Z,99.90
2018-09-04T06:13:25.714Z,99.90
2018-09-04T06:15:54.502Z,99.90
2018-09-04T06:18:23.228Z,99.90
2018-09-04T06:20:51.877Z,99.90
2018-09-04T06:23:20.694Z,99.90
2018-09-04T06:25:49.391Z,99.90
2018-09-04T06:28:17.919Z,99.90
2018-09-04T06:30:46.696Z,99.90
2018-09-04T06:33:15.283Z,99.90
2018-09-04T06:35:43.888Z,99.90
2018-09-04T06:38:12.500Z,99.90
2018-09-04T06:40:41.100Z,99.90
2018-09-04T06:43:09.586Z,99.90
2018-09-04T06:45:38.206Z,99.90
2018-09-04T06:48:06.913Z,99.90
2018-09-04T06:50:35.865Z,99.90
2018-09-04T06:53:04.631Z,99.90
2018-09-04T06:55:33.151Z,99.90
2018-09-04T06:58:01.986Z,99.90
2018-09-04T07:00:30.538Z,99.90
2018-09-04T07:02:59.428Z,99.90
2018-09-04T07:05:28.298Z,99.90
2018-09-04T07:07:56.828Z,99.90
2018-09-04T07:10:25.326Z,99.90
2018-09-04T07:12:53.979Z,99.90
2018-09-04T07:15:22.613Z,99.90
2018-09-04T07:17:51.183Z,99.90
2018-09-04T07:20:19.820Z,99.90
2018-09-04T07:22:48.940Z,99.90
2018-09-04T07:25:17.725Z,99.90
2018-09-04T07:27:46.236Z,99.90
2018-09-04T07:30:14.827Z,99.90
2018-09-04T07:32:43.328Z,99.90
2018-09-04T07:35:12.079Z,99.90
2018-09-04T07:37:40.919Z,99.90
2018-09-04T07:40:09.854Z,99.90
2018-09-04T07:42:38.836Z,99.90
2018-09-04T07:45:08.400Z,99.90
2018-09-04T07:47:37.029Z,99.90
2018-09-04T07:50:06.191Z,99.90
2018-09-04T07:52:34.936Z,99.90
2018-09-04T07:55:03.461Z,99.90
2018-09-04T07:57:32.316Z,99.90
2018-09-04T08:00:00.881Z,99.90
2018-09-04T08:02:29.476Z,99.90
2018-09-04T08:04:58.165Z,99.90
2018-09-04T08:07:26.845Z,99.90
2018-09-04T08:09:55.541Z,99.90
2018-09-04T08:12:24.029Z,99.90
2018-09-04T08:14:52.575Z,99.90
2018-09-04T08:17:21.112Z,99.90
2018-09-04T08:19:50.072Z,99.90
2018-09-04T08:22:18.997Z,99.90
2018-09-04T08:24:47.638Z,99.90
2018-09-04T08:27:16.684Z,99.90
2018-09-04T08:29:45.599Z,99.90
2018-09-04T08:32:14.706Z,99.90
2018-09-04T08:34:43.441Z,99.90
2018-09-04T08:37:12.774Z,99.90
2018-09-04T08:39:41.315Z,99.90
2018-09-04T08:42:10.026Z,99.90
2018-09-04T08:44:38.741Z,99.90
2018-09-04T08:47:07.622Z,99.90
2018-09-04T08:49:36.281Z,99.90
2018-09-04T08:52:04.896Z,99.90
2018-09-04T08:54:33.820Z,99.90
2018-09-04T08:57:02.560Z,99.90
2018-09-04T08:59:31.384Z,99.90
2018-09-04T09:02:00.156Z,99.90
2018-09-04T09:04:28.826Z,99.90
2018-09-04T09:06:57.730Z,99.90
2018-09-04T09:09:26.331Z,99.90
2018-09-04T09:11:54.932Z,99.90
2018-09-04T09:14:23.481Z,99.90
2018-09-04T09:16:52.094Z,99.90
2018-09-04T09:19:20.588Z,99.90
2018-09-04T09:21:49.176Z,99.90
2018-09-04T09:24:17.782Z,99.90
2018-09-04T09:26:46.702Z,99.90
2018-09-04T09:29:15.465Z,99.90
2018-09-04T09:31:44.223Z,99.90
2018-09-04T09:34:12.784Z,99.90
2018-09-04T09:36:41.688Z,99.90
2018-09-04T09:39:10.853Z,99.90
2018-09-04T09:41:40.105Z,99.90
2018-09-04T09:44:09.230Z,99.90
2018-09-04T09:46:38.195Z,99.90
2018-09-04T09:49:06.764Z,99.90
2018-09-04T09:51:35.298Z,99.90
2018-09-04T09:54:03.927Z,99.90
2018-09-04T09:56:32.611Z,99.90
2018-09-04T09:59:01.250Z,99.90
2018-09-04T10:01:30.958Z,99.90
2018-09-04T10:04:04.533Z,99.90
2018-09-04T10:06:33.280Z,99.90
2018-09-04T10:09:02.193Z,98.20
2018-09-04T10:11:30.767Z,97.90
2018-09-04T10:13:59.743Z,96.80
2018-09-04T10:16:28.355Z,96.20
2018-09-04T10:18:56.911Z,95.10
2018-09-04T10:21:25.550Z,94.90
2018-09-04T10:23:54.358Z,94.90
2018-09-04T10:26:22.961Z,94.00
2018-09-04T10:28:51.500Z,95.20
2018-09-04T10:31:20.414Z,94.70
2018-09-04T10:33:49.769Z,95.20
2018-09-04T10:36:18.335Z,95.50
2018-09-04T10:38:47.166Z,95.30
2018-09-04T10:41:16.121Z,95.60
2018-09-04T10:43:44.764Z,95.20
2018-09-04T10:46:14.960Z,93.50
2018-09-04T10:48:43.720Z,91.20
2018-09-04T10:51:12.528Z,88.90
2018-09-04T10:53:41.416Z,86.50
2018-09-04T10:56:09.991Z,85.80
2018-09-04T10:58:38.709Z,81.90
2018-09-04T11:01:07.310Z,81.70
2018-09-04T11:03:36.348Z,82.60
2018-09-04T11:06:04.941Z,78.40
2018-09-04T11:08:33.505Z,74.70
2018-09-04T11:11:02.251Z,71.80
2018-09-04T11:13:30.813Z,71.10
2018-09-04T11:15:59.516Z,74.20
2018-09-04T11:18:28.239Z,79.70
2018-09-04T11:20:56.859Z,84.00
2018-09-04T11:23:25.433Z,84.50
2018-09-04T11:25:53.923Z,87.50
2018-09-04T11:28:22.536Z,87.80
2018-09-04T11:30:51.188Z,86.60
2018-09-04T11:33:20.313Z,86.50
2018-09-04T11:35:48.967Z,86.20
2018-09-04T11:38:17.489Z,88.40
2018-09-04T11:40:46.377Z,90.10
2018-09-04T11:43:14.986Z,89.90
2018-09-04T11:45:43.748Z,87.00
2018-09-04T11:48:16.037Z,84.40
2018-09-04T11:50:44.937Z,85.70
2018-09-04T11:53:14.038Z,87.20
2018-09-04T11:55:43.103Z,90.80
2018-09-04T11:58:11.754Z,93.00
2018-09-04T12:00:43.496Z,93.80
2018-09-04T12:03:13.649Z,96.50
2018-09-04T12:05:42.580Z,99.20
2018-09-04T12:08:11.510Z,99.70
2018-09-04T12:10:40.802Z,99.40
2018-09-04T12:13:09.409Z,98.70
2018-09-04T12:15:39.864Z,98.10
2018-09-04T12:18:09.445Z,96.40
2018-09-04T12:20:44.390Z,94.10
2018-09-04T12:23:12.913Z,91.50
2018-09-04T12:25:42.072Z,90.40
2018-09-04T12:28:11.029Z,85.60
2018-09-04T12:30:39.884Z,83.80
2018-09-04T12:33:08.775Z,85.10
2018-09-04T12:35:37.368Z,87.00
2018-09-04T12:38:07.351Z,86.00
2018-09-04T12:40:36.227Z,84.30
2018-09-04T12:43:04.921Z,81.50
2018-09-04T12:45:39.335Z,79.30
2018-09-04T12:48:07.933Z,82.50
2018-09-04T12:50:37.516Z,85.10
2018-09-04T12:53:06.497Z,87.70
2018-09-04T12:55:35.082Z,90.40
2018-09-04T12:58:03.646Z,91.50
2018-09-04T13:00:32.287Z,92.40
2018-09-04T13:03:00.980Z,92.90
2018-09-04T13:05:30.021Z,93.70
2018-09-04T13:07:58.654Z,93.40
2018-09-04T13:10:27.683Z,92.10
2018-09-04T13:12:56.314Z,90.80
2018-09-04T13:15:25.128Z,86.80
2018-09-04T13:17:54.577Z,85.10
2018-09-04T13:20:23.343Z,82.10
2018-09-04T13:22:52.006Z,77.90
2018-09-04T13:25:20.634Z,75.20
2018-09-04T13:27:49.525Z,77.70
2018-09-04T13:30:18.060Z,81.50
2018-09-04T13:32:47.096Z,80.70
2018-09-04T13:35:16.017Z,82.00
2018-09-04T13:37:44.716Z,84.50
2018-09-04T13:40:13.509Z,84.60
2018-09-04T13:42:42.439Z,86.90
2018-09-04T13:45:11.013Z,88.00
2018-09-04T13:47:40.257Z,88.40
2018-09-04T13:50:09.271Z,89.40
2018-09-04T13:52:37.953Z,88.30
2018-09-04T13:55:07.053Z,87.30
2018-09-04T13:57:35.897Z,88.50
2018-09-04T14:00:04.591Z,90.20
2018-09-04T14:02:33.369Z,90.90
2018-09-04T14:05:02.005Z,91.30
2018-09-04T14:07:30.699Z,91.70
2018-09-04T14:09:59.800Z,90.90
2018-09-04T14:12:28.590Z,90.30
2018-09-04T14:14:57.170Z,89.60
2018-09-04T14:17:26.142Z,86.00
2018-09-04T14:19:55.110Z,86.60
2018-09-04T14:22:24.003Z,87.80
2018-09-04T14:24:52.697Z,90.20
2018-09-04T14:27:21.263Z,90.80
2018-09-04T14:29:53.967Z,89.80
2018-09-04T14:32:19.537Z,90.50
2018-09-04T14:34:48.553Z,91.10
2018-09-04T14:37:17.785Z,90.70
2018-09-04T14:39:55.584Z,90.70
2018-09-04T14:42:15.726Z,92.20
2018-09-04T14:44:44.738Z,93.90
2018-09-04T14:47:13.667Z,96.20
2018-09-04T14:49:42.328Z,98.30
2018-09-04T14:52:11.399Z,99.80
2018-09-04T14:54:40.285Z,99.90
2018-09-04T14:57:09.348Z,99.90
2018-09-04T14:59:37.937Z,99.90
2018-09-04T15:02:07.124Z,99.90
2018-09-04T15:04:36.080Z,99.90
2018-09-04T15:07:04.891Z,99.90
2018-09-04T15:09:33.469Z,99.90
2018-09-04T15:12:02.247Z,99.90
2018-09-04T15:14:31.070Z,99.90
2018-09-04T15:17:00.747Z,99.90
2018-09-04T15:19:30.121Z,99.90
2018-09-04T15:21:59.144Z,99.90
2018-09-04T15:24:28.261Z,99.90
2018-09-04T15:26:57.076Z,99.90
2018-09-04T15:29:25.960Z,99.90
2018-09-04T15:31:54.843Z,99.90
2018-09-04T15:34:23.551Z,99.90
2018-09-04T15:36:52.338Z,99.90
2018-09-04T15:39:21.047Z,99.90
2018-09-04T15:41:49.791Z,99.90
2018-09-04T15:44:18.568Z,99.90
2018-09-04T15:46:47.278Z,99.90
2018-09-04T15:49:21.440Z,99.90
2018-09-04T15:51:50.326Z,99.90
2018-09-04T15:54:19.286Z,99.90
2018-09-04T15:56:48.437Z,99.90
2018-09-04T15:59:17.376Z,99.90
2018-09-04T16:01:46.472Z,99.90
2018-09-04T16:04:16.319Z,99.90
2018-09-04T16:06:45.279Z,99.90
2018-09-04T16:09:14.063Z,99.90
2018-09-04T16:11:42.980Z,99.90
2018-09-04T16:14:11.888Z,99.90
2018-09-04T16:16:40.465Z,99.90
2018-09-04T16:19:09.261Z,99.90
2018-09-04T16:21:37.970Z,99.90
2018-09-04T16:24:07.029Z,99.90
2018-09-04T16:26:35.723Z,99.90
2018-09-04T16:29:05.008Z,99.90
2018-09-04T16:31:33.888Z,99.90
2018-09-04T16:34:02.772Z,99.90
2018-09-04T16:36:31.891Z,99.90
2018-09-04T16:39:00.857Z,99.90
2018-09-04T16:41:29.750Z,99.90
2018-09-04T16:43:58.520Z,99.90
2018-09-04T16:46:27.738Z,99.90
2018-09-04T16:48:56.730Z,99.90
2018-09-04T16:51:25.746Z,99.90
2018-09-04T16:53:55.269Z,99.90
2018-09-04T16:56:24.115Z,99.90
2018-09-04T16:58:53.073Z,99.90
2018-09-04T17:01:21.988Z,99.90
2018-09-04T17:03:50.879Z,99.90
2018-09-04T17:06:19.940Z,99.90
2018-09-04T17:08:48.944Z,99.90
2018-09-04T17:11:17.978Z,99.90
2018-09-04T17:13:47.072Z,99.90
2018-09-04T17:16:16.204Z,99.90
2018-09-04T17:18:45.004Z,99.90
2018-09-04T17:21:13.836Z,99.90
2018-09-04T17:23:42.910Z,99.90
2018-09-04T17:26:12.160Z,99.90
2018-09-04T17:28:41.297Z,99.90
2018-09-04T17:31:10.628Z,99.90
2018-09-04T17:33:39.523Z,99.90
2018-09-04T17:36:08.501Z,99.90
2018-09-04T17:38:37.302Z,99.90
2018-09-04T17:41:06.106Z,99.90
2018-09-04T17:43:34.884Z,99.90
2018-09-04T17:46:03.568Z,99.90
2018-09-04T17:48:32.499Z,99.90
2018-09-04T17:51:01.388Z,99.90
2018-09-04T17:53:31.741Z,99.90
2018-09-04T17:56:00.854Z,99.90
2018-09-04T17:58:29.884Z,99.90
2018-09-04T18:00:58.908Z,99.90
2018-09-04T18:03:28.008Z,99.90
2018-09-04T18:05:56.979Z,99.90
2018-09-04T18:08:26.072Z,99.90
2018-09-04T18:10:55.041Z,99.90
2018-09-04T18:13:23.893Z,99.90
2018-09-04T18:15:52.735Z,99.90
2018-09-04T18:18:21.538Z,99.90
2018-09-04T18:20:50.354Z,99.90
2018-09-04T18:23:19.080Z,99.90
2018-09-04T18:25:48.001Z,99.90
2018-09-04T18:28:16.782Z,99.90
2018-09-04T18:30:45.756Z,99.90
2018-09-04T18:33:14.441Z,99.90
2018-09-04T18:35:43.530Z,99.90
2018-09-04T18:38:12.302Z,99.90
2018-09-04T18:40:40.998Z,99.90
2018-09-04T18:43:09.743Z,99.90
2018-09-04T18:45:53.223Z,99.90
2018-09-04T18:48:22.612Z,99.90
2018-09-04T18:50:51.741Z,99.90
2018-09-04T18:53:20.466Z,99.90
2018-09-04T18:55:49.466Z,99.90
2018-09-04T18:58:18.190Z,99.90
2018-09-04T19:00:47.328Z,99.90
2018-09-04T19:03:16.141Z,99.90
2018-09-04T19:05:45.012Z,99.90
2018-09-04T19:08:13.789Z,99.90
2018-09-04T19:10:42.866Z,99.90
2018-09-04T19:13:11.727Z,99.90
2018-09-04T19:15:40.479Z,99.90
2018-09-04T19:18:09.237Z,99.90
2018-09-04T19:20:37.973Z,99.90
2018-09-04T19:23:06.615Z,99.90
2018-09-04T19:25:35.472Z,99.90
2018-09-04T19:28:04.591Z,99.90
2018-09-04T19:30:33.531Z,99.90
2018-09-04T19:33:02.413Z,99.90
2018-09-04T19:35:31.169Z,99.90
2018-09-04T19:37:59.943Z,99.90
2018-09-04T19:40:29.003Z,99.90
2018-09-04T19:42:57.656Z,99.90
2018-09-04T19:45:26.664Z,99.90
2018-09-04T19:47:55.788Z,99.90
2018-09-04T19:50:24.628Z,99.90
2018-09-04T19:52:53.666Z,99.90
2018-09-04T19:55:22.548Z,99.90
2018-09-04T19:57:51.846Z,99.90
2018-09-04T20:00:20.883Z,99.90
2018-09-04T20:02:49.457Z,99.90
2018-09-04T20:05:18.458Z,99.90
2018-09-04T20:07:47.319Z,99.90
2018-09-04T20:10:16.284Z,99.90
2018-09-04T20:12:45.123Z,99.90
2018-09-04T20:15:14.262Z,99.90
2018-09-04T20:17:43.592Z,99.90
2018-09-04T20:20:12.488Z,99.90
2018-09-04T20:22:41.112Z,99.90
2018-09-04T20:25:09.941Z,99.90
2018-09-04T20:27:38.959Z,99.90
2018-09-04T20:30:07.874Z,99.90
2018-09-04T20:32:36.824Z,99.90
2018-09-04T20:35:05.537Z,99.90
2018-09-04T20:37:34.516Z,99.90
2018-09-04T20:40:03.071Z,99.90
2018-09-04T20:42:31.807Z,99.90
2018-09-04T20:45:00.695Z,99.90
2018-09-04T20:47:29.243Z,99.90
2018-09-04T20:49:58.541Z,99.90
2018-09-04T20:52:27.066Z,99.90
2018-09-04T20:54:56.572Z,99.90
2018-09-04T20:57:31.465Z,99.90
2018-09-04T21:00:12.905Z,99.90
2018-09-04T21:02:52.903Z,99.90
2018-09-04T21:05:33.120Z,99.90
2018-09-04T21:08:14.403Z,99.90
2018-09-04T21:10:43.611Z,99.90
2018-09-04T21:13:12.940Z,99.90
2018-09-04T21:15:41.572Z,99.90
2018-09-04T21:18:10.275Z,99.90
2018-09-04T21:20:39.203Z,99.90
2018-09-04T21:23:07.808Z,99.90
2018-09-04T21:25:36.554Z,99.90
2018-09-04T21:28:05.346Z,99.90
2018-09-04T21:30:34.020Z,99.90
2018-09-04T21:33:02.924Z,99.90
2018-09-04T21:35:31.543Z,99.90
2018-09-04T21:38:00.164Z,99.90
2018-09-04T21:40:28.737Z,99.90
2018-09-04T21:42:57.678Z,99.90
2018-09-04T21:45:26.302Z,99.90
2018-09-04T21:47:55.011Z,99.90
2018-09-04T21:50:23.741Z,99.90
2018-09-04T21:52:52.316Z,99.90
2018-09-04T21:55:21.015Z,99.90
2018-09-04T21:57:49.560Z,99.90
2018-09-04T22:00:23.375Z,99.90
2018-09-04T22:02:52.067Z,99.90
2018-09-04T22:05:20.658Z,99.90
2018-09-04T22:07:49.324Z,99.90
2018-09-04T22:10:18.119Z,99.90
2018-09-04T22:12:46.692Z,99.90
2018-09-04T22:15:15.489Z,99.90
2018-09-04T22:17:44.104Z,99.90
2018-09-04T22:20:12.976Z,99.90
2018-09-04T22:22:41.560Z,99.90
2018-09-04T22:25:10.072Z,99.90
2018-09-04T22:27:38.948Z,99.90
2018-09-04T22:30:07.680Z,99.90
2018-09-04T22:32:36.238Z,99.90
2018-09-04T22:35:04.788Z,99.90
2018-09-04T22:37:33.340Z,99.90
2018-09-04T22:40:02.157Z,99.90
2018-09-04T22:42:30.728Z,99.90
2018-09-04T22:44:59.243Z,99.90
2018-09-04T22:47:28.282Z,99.90
2018-09-04T22:50:02.164Z,99.90
2018-09-04T22:52:31.975Z,99.90
2018-09-04T22:55:04.643Z,99.90
2018-09-04T22:57:33.374Z,99.90
2018-09-04T23:00:02.116Z,99.90
2018-09-04T23:02:30.899Z,99.90
2018-09-04T23:04:59.700Z,99.90
2018-09-04T23:07:28.599Z,99.90
2018-09-04T23:09:57.123Z,99.90
2018-09-04T23:12:25.812Z,99.90
2018-09-04T23:14:54.714Z,99.90
2018-09-04T23:17:23.479Z,99.90
2018-09-04T23:19:52.028Z,99.90
2018-09-04T23:22:20.616Z,99.90
2018-09-04T23:24:49.109Z,99.90
2018-09-04T23:27:17.600Z,99.90
2018-09-04T23:29:46.260Z,99.90
2018-09-04T23:32:14.832Z,99.90
2018-09-04T23:34:43.366Z,99.90
2018-09-04T23:37:11.966Z,99.90
2018-09-04T23:39:40.588Z,99.90
2018-09-04T23:42:09.108Z,99.90
2018-09-04T23:44:37.621Z,99.90
2018-09-04T23:47:06.475Z,99.90
2018-09-04T23:49:34.963Z,99.90
2018-09-04T23:52:03.675Z,99.90
2018-09-04T23:54:32.500Z,99.90
2018-09-04T23:57:01.080Z,99.90
2018-09-04T23:59:29.848Z,99.90
